Time;durP1;ratioP1;P1;durP2;ratioP2;P2;SDS_P1;SDS_P2;PMS_P1;PMS_P2;Temp;Humidity;BMP_temperature;BMP_pressure;BME280_temperature;BME280_humidity;BME280_pressure;Samples;Min_cycle;Max_cycle;Signal;HPM_P1;HPM_P2
2023/08/19 00:02:11;;;;;;;25.42;23.13;;;;;;;;;;5041694;28;20024;-62
2023/08/19 00:04:37;;;;;;;28.97;24.10;;;;;;;;;;5035947;28;20827;-63
2023/08/19 00:07:02;;;;;;;24.58;22.27;;;;;;;;;;5036013;28;20287;-62
2023/08/19 00:09:27;;;;;;;23.57;21.20;;;;;;;;;;5029785;28;20111;-62
2023/08/19 00:11:52;;;;;;;25.17;22.90;;;;;;;;;;5037131;28;20280;-62
2023/08/19 00:14:18;;;;;;;23.10;20.97;;;;;;;;;;5035686;28;20386;-62
2023/08/19 00:16:43;;;;;;;24.93;22.53;;;;;;;;;;5046533;28;20376;-62
2023/08/19 00:19:09;;;;;;;25.95;23.55;;;;;;;;;;5034936;28;20386;-62
2023/08/19 00:21:34;;;;;;;24.20;21.87;;;;;;;;;;5031884;28;20026;-64
2023/08/19 00:23:59;;;;;;;23.58;21.58;;;;;;;;;;5015954;28;20281;-62
2023/08/19 00:26:27;;;;;;;24.47;22.27;;;;;;;;;;5037052;28;20029;-62
2023/08/19 00:28:52;;;;;;;24.33;22.20;;;;;;;;;;5038646;28;20281;-62
2023/08/19 00:31:18;;;;;;;24.13;21.93;;;;;;;;;;5037149;28;20754;-64
2023/08/19 00:33:43;;;;;;;23.02;20.70;;;;;;;;;;5039345;28;20266;-64
2023/08/19 00:36:08;;;;;;;21.00;19.07;;;;;;;;;;5043362;28;20028;-63
2023/08/19 00:38:34;;;;;;;22.30;19.80;;;;;;;;;;5045231;28;21145;-63
2023/08/19 00:40:59;;;;;;;20.40;18.43;;;;;;;;;;5040043;28;20274;-63
2023/08/19 00:43:24;;;;;;;19.92;18.20;;;;;;;;;;5056853;28;20288;-63
2023/08/19 00:45:50;;;;;;;20.58;18.70;;;;;;;;;;5088448;28;20107;-63
2023/08/19 00:48:16;;;;;;;20.67;18.65;;;;;;;;;;5082189;28;20101;-65
2023/08/19 00:50:42;;;;;;;20.83;18.73;;;;;;;;;;5092223;28;20435;-63
2023/08/19 00:53:08;;;;;;;20.02;18.02;;;;;;;;;;5092865;28;20111;-62
2023/08/19 00:55:33;;;;;;;20.73;18.83;;;;;;;;;;5092111;28;20432;-62
2023/08/19 00:58:01;;;;;;;20.60;18.70;;;;;;;;;;5092677;28;20110;-63
2023/08/19 01:00:27;;;;;;;20.15;18.33;;;;;;;;;;5092741;28;20136;-62
2023/08/19 01:02:52;;;;;;;19.83;17.77;;;;;;;;;;5086759;28;20487;-62
2023/08/19 01:05:19;;;;;;;21.67;19.60;;;;;;;;;;5087282;28;20046;-63
2023/08/19 01:07:59;;;;;;;20.58;18.67;;;;;;;;;;5089834;28;20277;-64
2023/08/19 01:10:31;;;;;;;19.98;18.08;;;;;;;;;;5085089;28;20024;-62
2023/08/19 01:13:26;;;;;;;19.38;17.63;;;;;;;;;;5069671;28;20024;-62
2023/08/19 01:15:51;;;;;;;;;;;;;;;;;;5014620;28;20036;-63
2023/08/19 01:18:17;;;;;;;17.85;16.05;;;;;;;;;;5030054;28;19912;-63
2023/08/19 01:20:42;;;;;;;18.50;16.70;;;;;;;;;;5046348;28;20024;-63
2023/08/19 01:23:15;;;;;;;17.67;15.98;;;;;;;;;;5032100;28;20024;-63
2023/08/19 01:25:42;;;;;;;18.00;16.38;;;;;;;;;;5033276;28;20107;-63
2023/08/19 01:28:07;;;;;;;16.80;15.20;;;;;;;;;;5040753;28;20135;-63
2023/08/19 01:30:33;;;;;;;16.52;14.93;;;;;;;;;;5042560;28;20098;-63
2023/08/19 01:32:59;;;;;;;17.48;15.77;;;;;;;;;;5031157;28;20024;-63
2023/08/19 01:35:24;;;;;;;19.48;14.70;;;;;;;;;;5029648;28;20028;-63
2023/08/19 01:37:53;;;;;;;17.15;15.13;;;;;;;;;;5032886;28;20859;-63
2023/08/19 01:40:19;;;;;;;15.73;14.13;;;;;;;;;;5082464;28;20024;-63
2023/08/19 01:42:45;;;;;;;16.85;15.20;;;;;;;;;;5076313;28;20025;-63
2023/08/19 01:45:10;;;;;;;16.27;14.88;;;;;;;;;;5066353;28;20032;-63
2023/08/19 01:47:39;;;;;;;16.40;14.90;;;;;;;;;;5029443;28;20135;-63
2023/08/19 01:50:07;;;;;;;18.90;14.43;;;;;;;;;;5030366;28;20040;-63
2023/08/19 01:52:33;;;;;;;15.70;14.18;;;;;;;;;;5021708;28;20898;-63
2023/08/19 01:54:58;;;;;;;17.70;14.93;;;;;;;;;;5048082;28;20024;-63
2023/08/19 01:57:27;;;;;;;16.83;15.18;;;;;;;;;;5080884;28;20385;-63
2023/08/19 01:59:53;;;;;;;16.08;14.57;;;;;;;;;;5081907;28;20356;-64
2023/08/19 02:02:18;;;;;;;14.77;13.40;;;;;;;;;;5085064;28;20060;-63
2023/08/19 02:04:43;;;;;;;16.40;14.73;;;;;;;;;;5061081;28;20147;-63
2023/08/19 02:07:08;;;;;;;16.48;14.75;;;;;;;;;;5028449;28;20380;-63
2023/08/19 02:09:34;;;;;;;15.98;14.63;;;;;;;;;;5031596;28;20867;-64
2023/08/19 02:12:00;;;;;;;16.20;14.77;;;;;;;;;;5069717;28;20031;-63
2023/08/19 02:14:25;;;;;;;17.08;15.38;;;;;;;;;;5088589;28;20021;-63
2023/08/19 02:16:50;;;;;;;16.65;15.10;;;;;;;;;;5065258;28;20060;-62
2023/08/19 02:19:16;;;;;;;16.30;14.80;;;;;;;;;;5032279;28;20971;-63
2023/08/19 02:21:41;;;;;;;17.27;15.77;;;;;;;;;;5073984;28;20024;-62
2023/08/19 02:24:06;;;;;;;17.00;15.50;;;;;;;;;;5064987;28;20276;-63
2023/08/19 02:26:32;;;;;;;16.45;14.88;;;;;;;;;;5044759;28;20113;-63
2023/08/19 02:28:57;;;;;;;17.63;15.03;;;;;;;;;;5040591;28;20059;-63
2023/08/19 02:31:22;;;;;;;16.23;14.83;;;;;;;;;;5051463;28;21212;-63
2023/08/19 02:33:47;;;;;;;16.00;14.40;;;;;;;;;;5038137;28;20278;-63
2023/08/19 02:36:13;;;;;;;16.03;14.43;;;;;;;;;;5029428;28;20851;-63
2023/08/19 02:38:38;;;;;;;16.25;14.75;;;;;;;;;;5036186;28;20515;-63
2023/08/19 02:41:04;;;;;;;16.73;14.98;;;;;;;;;;5028658;28;20127;-64
2023/08/19 02:43:29;;;;;;;15.57;14.07;;;;;;;;;;5036999;28;20879;-64
2023/08/19 02:45:55;;;;;;;18.80;14.63;;;;;;;;;;5038181;28;20039;-64
2023/08/19 02:48:20;;;;;;;15.68;14.27;;;;;;;;;;5031847;28;20879;-64
2023/08/19 02:50:45;;;;;;;16.43;14.90;;;;;;;;;;5039243;28;20032;-64
2023/08/19 02:53:10;;;;;;;15.38;13.98;;;;;;;;;;5043289;28;20275;-64
2023/08/19 02:55:39;;;;;;;18.83;14.17;;;;;;;;;;5070700;28;20052;-64
2023/08/19 02:58:04;;;;;;;15.27;13.88;;;;;;;;;;5080287;28;20285;-64
2023/08/19 03:00:30;;;;;;;15.20;13.60;;;;;;;;;;5090664;28;20030;-64
2023/08/19 03:02:55;;;;;;;15.83;14.33;;;;;;;;;;5081658;28;20416;-63
2023/08/19 03:05:20;;;;;;;15.73;14.35;;;;;;;;;;5076584;28;20282;-64
2023/08/19 03:07:45;;;;;;;15.98;14.38;;;;;;;;;;5090837;28;20024;-63
2023/08/19 03:10:11;;;;;;;16.48;14.88;;;;;;;;;;5056651;28;20081;-64
2023/08/19 03:12:36;;;;;;;15.47;14.03;;;;;;;;;;5038837;28;20856;-63
2023/08/19 03:15:01;;;;;;;17.23;15.50;;;;;;;;;;5036838;28;20277;-63
2023/08/19 03:17:26;;;;;;;16.27;14.77;;;;;;;;;;5027614;28;20895;-63
2023/08/19 03:19:52;;;;;;;16.87;13.93;;;;;;;;;;5041779;28;20881;-63
2023/08/19 03:22:17;;;;;;;14.87;13.47;;;;;;;;;;5044806;28;20489;-64
2023/08/19 03:24:43;;;;;;;15.30;13.90;;;;;;;;;;5038142;28;20308;-64
2023/08/19 03:27:08;;;;;;;15.50;14.13;;;;;;;;;;5071913;28;20321;-64
2023/08/19 03:29:33;;;;;;;18.80;16.80;;;;;;;;;;5083852;28;20024;-64
2023/08/19 03:31:58;;;;;;;17.77;16.07;;;;;;;;;;5076824;28;20283;-64
2023/08/19 03:34:25;;;;;;;17.77;15.97;;;;;;;;;;5075067;28;20812;-64
2023/08/19 03:36:50;;;;;;;17.92;16.13;;;;;;;;;;5090948;28;20262;-64
2023/08/19 03:39:15;;;;;;;18.87;17.17;;;;;;;;;;5056836;28;20020;-64
2023/08/19 03:41:40;;;;;;;16.47;14.93;;;;;;;;;;5042652;28;20278;-63
2023/08/19 03:44:06;;;;;;;17.23;15.53;;;;;;;;;;5031868;28;21121;-64
2023/08/19 03:46:31;;;;;;;17.90;16.30;;;;;;;;;;5042094;28;20408;-64
2023/08/19 03:48:56;;;;;;;17.20;15.45;;;;;;;;;;5018946;28;20327;-64
2023/08/19 03:51:21;;;;;;;16.40;14.85;;;;;;;;;;5034690;28;20931;-64
2023/08/19 03:53:47;;;;;;;16.97;15.37;;;;;;;;;;5042844;28;20965;-64
2023/08/19 03:56:12;;;;;;;15.73;14.23;;;;;;;;;;5043399;28;20597;-63
2023/08/19 03:58:37;;;;;;;17.42;14.85;;;;;;;;;;5035962;28;20135;-63
2023/08/19 04:01:08;;;;;;;16.63;15.07;;;;;;;;;;5031710;28;20039;-63
2023/08/19 04:03:34;;;;;;;16.73;15.30;;;;;;;;;;5039551;28;20282;-64
2023/08/19 04:05:59;;;;;;;16.40;14.82;;;;;;;;;;5046126;28;20935;-64
2023/08/19 04:08:25;;;;;;;16.10;14.50;;;;;;;;;;5045986;28;20028;-64
2023/08/19 04:10:50;;;;;;;15.38;14.02;;;;;;;;;;5044720;28;20842;-64
2023/08/19 04:13:17;;;;;;;16.60;15.10;;;;;;;;;;5033936;28;20127;-63
2023/08/19 04:15:42;;;;;;;15.00;13.63;;;;;;;;;;5042125;28;20312;-63
2023/08/19 04:18:08;;;;;;;15.57;14.15;;;;;;;;;;5033865;28;20020;-64
2023/08/19 04:20:40;;;;;;;14.95;12.38;;;;;;;;;;5029580;28;20075;-64
2023/08/19 04:23:05;;;;;;;12.68;11.43;;;;;;;;;;5032578;28;20032;-64
2023/08/19 04:25:31;;;;;;;15.93;11.57;;;;;;;;;;5042568;28;20202;-64
2023/08/19 04:27:56;;;;;;;11.45;10.30;;;;;;;;;;5037503;28;20074;-64
2023/08/19 04:30:22;;;;;;;13.32;11.32;;;;;;;;;;5035697;28;20131;-64
2023/08/19 04:32:47;;;;;;;11.93;10.43;;;;;;;;;;5029849;28;20143;-63
2023/08/19 04:35:12;;;;;;;11.43;10.33;;;;;;;;;;5049971;28;20104;-63
2023/08/19 04:37:38;;;;;;;11.07;9.93;;;;;;;;;;5074483;28;20788;-63
2023/08/19 04:40:06;;;;;;;13.93;12.32;;;;;;;;;;5036766;28;20139;-64
2023/08/19 04:42:32;;;;;;;12.27;10.95;;;;;;;;;;5044666;28;20549;-64
2023/08/19 04:44:57;;;;;;;11.80;10.57;;;;;;;;;;5071836;28;20027;-63
2023/08/19 04:47:22;;;;;;;11.73;10.10;;;;;;;;;;5081912;28;20718;-63
2023/08/19 04:49:47;;;;;;;14.30;11.60;;;;;;;;;;5079624;28;20297;-63
2023/08/19 04:52:13;;;;;;;13.43;10.83;;;;;;;;;;5080240;28;20034;-63
2023/08/19 04:54:38;;;;;;;12.87;11.30;;;;;;;;;;5076927;28;20772;-63
2023/08/19 04:57:03;;;;;;;12.13;10.93;;;;;;;;;;5075458;28;20641;-63
2023/08/19 04:59:29;;;;;;;14.25;11.98;;;;;;;;;;5088119;28;20270;-63
2023/08/19 05:01:54;;;;;;;11.80;10.67;;;;;;;;;;5072495;28;20451;-63
2023/08/19 05:04:19;;;;;;;12.07;10.67;;;;;;;;;;5074198;28;20345;-63
2023/08/19 05:06:44;;;;;;;14.88;11.57;;;;;;;;;;5086256;28;20286;-63
2023/08/19 05:09:10;;;;;;;12.83;10.77;;;;;;;;;;5073750;28;20024;-63
2023/08/19 05:11:35;;;;;;;14.05;11.27;;;;;;;;;;5079481;28;20278;-63
2023/08/19 05:14:01;;;;;;;11.98;10.75;;;;;;;;;;5081838;28;20024;-63
2023/08/19 05:16:26;;;;;;;12.20;10.27;;;;;;;;;;5074977;28;20111;-63
2023/08/19 05:19:05;;;;;;;11.87;10.77;;;;;;;;;;5078689;28;20297;-63
2023/08/19 05:21:30;;;;;;;11.10;10.05;;;;;;;;;;5079345;28;20266;-64
2023/08/19 05:23:56;;;;;;;11.47;10.23;;;;;;;;;;5079908;28;20486;-63
2023/08/19 05:26:21;;;;;;;13.67;10.80;;;;;;;;;;5090274;28;20787;-63
2023/08/19 05:28:46;;;;;;;12.80;10.68;;;;;;;;;;5074481;28;20351;-63
2023/08/19 05:31:11;;;;;;;12.20;11.00;;;;;;;;;;5078512;28;20036;-63
2023/08/19 05:33:37;;;;;;;12.17;10.80;;;;;;;;;;5092715;28;20320;-63
2023/08/19 05:36:02;;;;;;;11.70;10.47;;;;;;;;;;5078142;28;20285;-63
2023/08/19 05:38:27;;;;;;;11.73;10.52;;;;;;;;;;5044585;28;20320;-63
2023/08/19 05:40:52;;;;;;;11.87;10.23;;;;;;;;;;5039122;28;20989;-64
2023/08/19 05:43:18;;;;;;;12.07;10.88;;;;;;;;;;5050879;28;21013;-63
2023/08/19 05:45:43;;;;;;;11.88;9.57;;;;;;;;;;5036646;28;20028;-63
2023/08/19 05:48:09;;;;;;;15.55;10.02;;;;;;;;;;5059188;28;20091;-64
2023/08/19 05:50:34;;;;;;;10.50;9.47;;;;;;;;;;5042749;28;20020;-63
2023/08/19 05:52:59;;;;;;;14.27;8.97;;;;;;;;;;5071050;28;20293;-63
2023/08/19 05:55:24;;;;;;;9.65;8.68;;;;;;;;;;5083067;28;20323;-63
2023/08/19 05:57:50;;;;;;;10.85;9.23;;;;;;;;;;5078364;28;20104;-63
2023/08/19 06:00:16;;;;;;;9.27;7.97;;;;;;;;;;5076095;28;20040;-63
2023/08/19 06:02:41;;;;;;;8.80;7.47;;;;;;;;;;5087913;28;20362;-63
2023/08/19 06:05:07;;;;;;;10.65;8.18;;;;;;;;;;5079914;28;20020;-63
2023/08/19 06:07:33;;;;;;;10.27;7.25;;;;;;;;;;5072592;28;20458;-63
2023/08/19 06:09:58;;;;;;;11.20;7.75;;;;;;;;;;5035278;28;20139;-63
2023/08/19 06:12:24;;;;;;;9.23;7.18;;;;;;;;;;5031007;28;20055;-63
2023/08/19 06:14:49;;;;;;;10.03;8.07;;;;;;;;;;5033026;28;20055;-63
2023/08/19 06:17:14;;;;;;;9.20;7.53;;;;;;;;;;5036136;28;20432;-63
2023/08/19 06:19:39;;;;;;;10.40;8.15;;;;;;;;;;5074941;28;20082;-63
2023/08/19 06:22:05;;;;;;;11.87;8.00;;;;;;;;;;5072873;28;20029;-63
2023/08/19 06:24:30;;;;;;;9.50;8.02;;;;;;;;;;5073254;28;20267;-63
2023/08/19 06:26:55;;;;;;;8.73;7.63;;;;;;;;;;5073410;28;20034;-63
2023/08/19 06:29:20;;;;;;;8.90;7.63;;;;;;;;;;5074296;28;20704;-63
2023/08/19 06:31:46;;;;;;;9.50;8.50;;;;;;;;;;5072959;28;20275;-63
2023/08/19 06:34:11;;;;;;;13.75;7.30;;;;;;;;;;5091622;28;20273;-63
2023/08/19 06:36:38;;;;;;;10.80;7.15;;;;;;;;;;5072885;28;20009;-63
2023/08/19 06:39:06;;;;;;;9.88;7.25;;;;;;;;;;5073125;28;20064;-63
2023/08/19 06:41:33;;;;;;;11.82;6.90;;;;;;;;;;5076327;28;20077;-63
2023/08/19 06:44:01;;;;;;;9.48;7.90;;;;;;;;;;5080635;28;20031;-63
2023/08/19 06:46:27;;;;;;;8.52;6.32;;;;;;;;;;5072577;28;20693;-63
2023/08/19 06:48:52;;;;;;;14.57;7.40;;;;;;;;;;5074591;28;20066;-63
2023/08/19 06:51:18;;;;;;;9.77;6.30;;;;;;;;;;5073176;28;20462;-63
2023/08/19 06:53:43;;;;;;;8.35;6.90;;;;;;;;;;5081308;28;20386;-63
2023/08/19 06:56:37;;;;;;;14.27;7.50;;;;;;;;;;5081510;28;20357;-63
2023/08/19 06:59:03;;;;;;;16.33;7.30;;;;;;;;;;5015341;28;20453;-63
2023/08/19 07:01:30;;;;;;;7.40;5.80;;;;;;;;;;5088838;28;20048;-63
2023/08/19 07:03:56;;;;;;;8.90;6.60;;;;;;;;;;5082023;28;20266;-63
2023/08/19 07:06:21;;;;;;;7.10;6.38;;;;;;;;;;5087230;28;20043;-63
2023/08/19 07:08:46;;;;;;;8.98;6.65;;;;;;;;;;5087139;28;20454;-63
2023/08/19 07:11:12;;;;;;;8.05;6.28;;;;;;;;;;5087270;28;20012;-63
2023/08/19 07:13:38;;;;;;;9.93;7.47;;;;;;;;;;5090575;28;20036;-64
2023/08/19 07:16:04;;;;;;;12.25;6.38;;;;;;;;;;5084494;28;20060;-63
2023/08/19 07:18:34;;;;;;;10.43;6.10;;;;;;;;;;5079252;28;20478;-63
2023/08/19 07:21:00;;;;;;;8.10;6.50;;;;;;;;;;5079841;28;20457;-63
2023/08/19 07:23:25;;;;;;;9.35;5.85;;;;;;;;;;5072969;28;20023;-63
2023/08/19 07:25:51;;;;;;;8.13;6.60;;;;;;;;;;5084446;28;20036;-63
2023/08/19 07:28:17;;;;;;;7.97;5.93;;;;;;;;;;5090632;28;20032;-63
2023/08/19 07:30:42;;;;;;;7.70;6.45;;;;;;;;;;5064361;28;20127;-63
2023/08/19 07:33:10;;;;;;;9.55;7.22;;;;;;;;;;5027553;28;20040;-64
2023/08/19 07:35:35;;;;;;;8.30;6.78;;;;;;;;;;5037692;28;20025;-64
2023/08/19 07:38:01;;;;;;;6.20;5.57;;;;;;;;;;5044773;28;20074;-64
2023/08/19 07:40:26;;;;;;;6.53;4.68;;;;;;;;;;5063736;28;20038;-63
2023/08/19 07:42:51;;;;;;;8.00;5.60;;;;;;;;;;5059434;28;20016;-64
2023/08/19 07:45:17;;;;;;;9.00;5.38;;;;;;;;;;5060968;28;20039;-63
2023/08/19 07:47:42;;;;;;;9.30;5.05;;;;;;;;;;5074608;28;20719;-64
2023/08/19 07:50:07;;;;;;;7.83;5.50;;;;;;;;;;5075284;28;20028;-63
2023/08/19 07:52:33;;;;;;;7.13;5.72;;;;;;;;;;5084664;28;20278;-64
2023/08/19 07:54:58;;;;;;;7.50;5.13;;;;;;;;;;5090885;28;20426;-63
2023/08/19 07:57:23;;;;;;;7.37;5.57;;;;;;;;;;5083829;28;20279;-64
2023/08/19 07:59:48;;;;;;;7.35;5.35;;;;;;;;;;5087339;28;20280;-63
2023/08/19 08:02:14;;;;;;;6.57;5.07;;;;;;;;;;5085802;28;20027;-63
2023/08/19 08:04:40;;;;;;;9.20;5.40;;;;;;;;;;5088925;28;20262;-64
2023/08/19 08:07:05;;;;;;;6.72;4.82;;;;;;;;;;5089633;28;20307;-63
2023/08/19 08:09:30;;;;;;;8.00;4.80;;;;;;;;;;5072375;28;20027;-64
2023/08/19 08:11:55;;;;;;;5.90;4.57;;;;;;;;;;5090079;28;20470;-62
2023/08/19 08:14:20;;;;;;;6.47;4.47;;;;;;;;;;5084980;28;20666;-63
2023/08/19 08:16:46;;;;;;;6.47;5.17;;;;;;;;;;5077889;28;20281;-63
2023/08/19 08:19:11;;;;;;;5.90;4.80;;;;;;;;;;5076565;28;20263;-63
2023/08/19 08:21:36;;;;;;;7.37;4.80;;;;;;;;;;5080122;28;20023;-64
2023/08/19 08:24:02;;;;;;;8.27;5.73;;;;;;;;;;5084800;28;20357;-63
2023/08/19 08:26:27;;;;;;;8.10;4.88;;;;;;;;;;5076759;28;20314;-62
2023/08/19 08:28:52;;;;;;;9.98;4.90;;;;;;;;;;5077326;28;20016;-62
2023/08/19 08:31:18;;;;;;;7.63;4.87;;;;;;;;;;5084144;28;20068;-63
2023/08/19 08:33:43;;;;;;;8.10;4.78;;;;;;;;;;5086407;28;20281;-64
2023/08/19 08:36:08;;;;;;;8.13;5.60;;;;;;;;;;5075903;28;20029;-63
2023/08/19 08:38:33;;;;;;;6.90;5.43;;;;;;;;;;5084479;28;20028;-63
2023/08/19 08:41:02;;;;;;;8.18;5.25;;;;;;;;;;5092683;28;20281;-63
2023/08/19 08:43:28;;;;;;;7.15;4.88;;;;;;;;;;5081890;28;20029;-63
2023/08/19 08:45:54;;;;;;;8.05;4.78;;;;;;;;;;5078822;28;20028;-63
2023/08/19 08:48:19;;;;;;;6.95;5.07;;;;;;;;;;5074701;28;20050;-63
2023/08/19 08:50:44;;;;;;;5.68;4.50;;;;;;;;;;5088196;28;20032;-63
2023/08/19 08:53:12;;;;;;;7.47;5.25;;;;;;;;;;5075478;28;20474;-63
2023/08/19 08:55:37;;;;;;;7.72;5.03;;;;;;;;;;5077697;28;20076;-62
2023/08/19 08:58:03;;;;;;;10.48;5.18;;;;;;;;;;5078669;28;20047;-63
2023/08/19 09:00:28;;;;;;;5.85;5.15;;;;;;;;;;5076284;28;20028;-63
2023/08/19 09:02:54;;;;;;;9.07;5.00;;;;;;;;;;5088965;28;20475;-63
2023/08/19 09:05:21;;;;;;;9.15;5.75;;;;;;;;;;5086620;28;20042;-61
2023/08/19 09:07:46;;;;;;;7.47;4.47;;;;;;;;;;5083497;28;20566;-63
2023/08/19 09:10:15;;;;;;;6.45;5.00;;;;;;;;;;5079602;28;20028;-62
2023/08/19 09:12:43;;;;;;;5.82;5.05;;;;;;;;;;5088551;28;20027;-65
2023/08/19 09:15:10;;;;;;;8.27;5.30;;;;;;;;;;5088598;28;20038;-63
2023/08/19 09:17:35;;;;;;;9.27;5.63;;;;;;;;;;5087346;28;20035;-63
2023/08/19 09:20:03;;;;;;;6.80;5.00;;;;;;;;;;5088696;28;20040;-65
2023/08/19 09:22:28;;;;;;;7.30;5.97;;;;;;;;;;5088479;28;20027;-63
2023/08/19 09:24:54;;;;;;;8.02;6.07;;;;;;;;;;5083580;28;20392;-64
2023/08/19 09:27:31;;;;;;;6.07;5.15;;;;;;;;;;5080654;28;20020;-62
2023/08/19 09:29:57;;;;;;;7.03;5.70;;;;;;;;;;5078727;28;20032;-63
2023/08/19 09:32:32;;;;;;;7.15;5.80;;;;;;;;;;5078640;28;20116;-63
2023/08/19 09:35:02;;;;;;;9.05;6.63;;;;;;;;;;5074444;28;20028;-63
2023/08/19 09:37:27;;;;;;;7.95;6.47;;;;;;;;;;5076989;28;20034;-62
2023/08/19 09:39:53;;;;;;;10.00;7.25;;;;;;;;;;5073508;28;20020;-62
2023/08/19 09:42:20;;;;;;;8.32;6.60;;;;;;;;;;5075913;28;20397;-63
2023/08/19 09:44:45;;;;;;;11.90;7.97;;;;;;;;;;5074253;28;20118;-63
2023/08/19 09:47:11;;;;;;;9.68;8.30;;;;;;;;;;5083256;28;20107;-62
2023/08/19 09:49:37;;;;;;;12.77;8.23;;;;;;;;;;5080682;28;20078;-64
2023/08/19 09:52:02;;;;;;;9.75;8.57;;;;;;;;;;5082652;28;20300;-64
2023/08/19 09:54:28;;;;;;;9.48;8.45;;;;;;;;;;5079069;28;20427;-64
2023/08/19 09:56:57;;;;;;;12.20;9.23;;;;;;;;;;5075631;28;20016;-64
2023/08/19 09:59:26;;;;;;;12.00;9.45;;;;;;;;;;5078903;28;20645;-61
2023/08/19 10:01:52;;;;;;;11.15;8.75;;;;;;;;;;5081513;28;20386;-63
2023/08/19 10:04:20;;;;;;;11.13;9.15;;;;;;;;;;5077725;28;20051;-64
2023/08/19 10:06:48;;;;;;;10.55;9.23;;;;;;;;;;5086941;28;20510;-64
2023/08/19 10:09:15;;;;;;;10.38;8.93;;;;;;;;;;5073908;28;20028;-64
2023/08/19 10:11:42;;;;;;;10.48;9.20;;;;;;;;;;5086659;28;20447;-65
2023/08/19 10:14:08;;;;;;;11.30;9.68;;;;;;;;;;5091871;28;20032;-64
2023/08/19 10:16:36;;;;;;;14.45;9.70;;;;;;;;;;5092279;28;20383;-64
2023/08/19 10:19:02;;;;;;;10.35;9.23;;;;;;;;;;5089489;28;20554;-64
2023/08/19 10:21:30;;;;;;;11.65;10.55;;;;;;;;;;5091206;28;20103;-63
2023/08/19 10:23:56;;;;;;;11.85;10.68;;;;;;;;;;5089828;28;20028;-62
2023/08/19 10:26:21;;;;;;;12.70;10.82;;;;;;;;;;5091481;28;20024;-63
2023/08/19 10:29:03;;;;;;;11.55;10.30;;;;;;;;;;5073843;28;20039;-64
2023/08/19 10:31:28;;;;;;;12.13;10.90;;;;;;;;;;5084839;28;20058;-64
2023/08/19 10:33:53;;;;;;;14.13;11.95;;;;;;;;;;5082269;28;20364;-63
2023/08/19 10:36:19;;;;;;;13.03;11.60;;;;;;;;;;5076879;28;20686;-64
2023/08/19 10:38:53;;;;;;;13.10;11.75;;;;;;;;;;5072957;28;20325;-64
2023/08/19 10:41:18;;;;;;;;;;;;;;;;;;5078725;28;20087;-64
2023/08/19 10:43:49;;;;;;;14.93;12.32;;;;;;;;;;5090473;28;19919;-63
2023/08/19 10:46:18;;;;;;;16.38;12.85;;;;;;;;;;5078644;28;20036;-63
2023/08/19 10:48:50;;;;;;;13.63;12.25;;;;;;;;;;5083007;28;20471;-63
2023/08/19 10:51:18;;;;;;;14.20;12.02;;;;;;;;;;5081011;28;20099;-63
2023/08/19 10:54:02;;;;;;;13.95;11.65;;;;;;;;;;5076434;28;20024;-63
2023/08/19 10:56:27;;;;;;;14.52;12.50;;;;;;;;;;5080013;28;20471;-63
2023/08/19 10:58:53;;;;;;;13.85;12.43;;;;;;;;;;5074363;28;20044;-63
2023/08/19 11:01:18;;;;;;;14.33;12.83;;;;;;;;;;5079087;28;20031;-64
2023/08/19 11:03:43;;;;;;;12.93;11.13;;;;;;;;;;5073837;28;20282;-64
2023/08/19 11:06:08;;;;;;;14.23;11.27;;;;;;;;;;5077803;28;20028;-64
2023/08/19 11:08:40;;;;;;;12.83;11.30;;;;;;;;;;5073678;28;20634;-63
2023/08/19 11:11:06;;;;;;;11.38;10.35;;;;;;;;;;5075565;28;20266;-64
2023/08/19 11:13:31;;;;;;;12.23;11.02;;;;;;;;;;5084027;28;20074;-63
2023/08/19 11:16:05;;;;;;;12.68;11.32;;;;;;;;;;5087815;28;20538;-64
2023/08/19 11:18:31;;;;;;;12.95;11.68;;;;;;;;;;5084448;28;20020;-64
2023/08/19 11:20:56;;;;;;;14.07;10.70;;;;;;;;;;5086966;28;20493;-63
2023/08/19 11:23:25;;;;;;;12.10;10.93;;;;;;;;;;5080711;28;20429;-63
2023/08/19 11:25:50;;;;;;;12.30;10.93;;;;;;;;;;5085719;28;20395;-64
2023/08/19 11:28:15;;;;;;;12.00;10.80;;;;;;;;;;5084484;28;20032;-64
2023/08/19 11:30:40;;;;;;;12.23;10.97;;;;;;;;;;5085510;28;20768;-64
2023/08/19 11:33:07;;;;;;;11.27;10.10;;;;;;;;;;5086049;28;20324;-63
2023/08/19 11:35:42;;;;;;;14.90;10.70;;;;;;;;;;5088184;28;20289;-64
2023/08/19 11:38:14;;;;;;;13.57;10.52;;;;;;;;;;5082179;28;20027;-63
2023/08/19 11:40:41;;;;;;;11.25;10.18;;;;;;;;;;5068055;28;20028;-63
2023/08/19 11:43:11;;;;;;;11.52;10.38;;;;;;;;;;5082805;28;20023;-64
2023/08/19 11:45:37;;;;;;;11.85;10.65;;;;;;;;;;5085160;28;20032;-64
2023/08/19 11:48:03;;;;;;;12.27;10.48;;;;;;;;;;5081200;28;20028;-63
2023/08/19 11:50:34;;;;;;;11.18;10.07;;;;;;;;;;5074443;28;20039;-63
2023/08/19 11:52:59;;;;;;;12.15;10.95;;;;;;;;;;5080729;28;20028;-64
2023/08/19 11:55:25;;;;;;;14.70;13.17;;;;;;;;;;5082915;28;20398;-63
2023/08/19 11:57:52;;;;;;;16.05;13.38;;;;;;;;;;5083455;28;20757;-63
2023/08/19 12:00:18;;;;;;;15.00;13.07;;;;;;;;;;5076375;28;20483;-63
2023/08/19 12:02:44;;;;;;;15.00;13.50;;;;;;;;;;5080819;28;20093;-64
2023/08/19 12:05:09;;;;;;;15.77;14.15;;;;;;;;;;5086102;28;20297;-64
2023/08/19 12:07:35;;;;;;;17.13;14.87;;;;;;;;;;5084308;28;20379;-64
2023/08/19 12:10:00;;;;;;;16.63;15.03;;;;;;;;;;5075123;28;20274;-64
2023/08/19 12:12:25;;;;;;;17.37;15.70;;;;;;;;;;5078289;28;20279;-64
2023/08/19 12:14:51;;;;;;;17.02;15.18;;;;;;;;;;5082846;28;20271;-64
2023/08/19 12:17:17;;;;;;;18.88;16.90;;;;;;;;;;5077325;28;20028;-64
2023/08/19 12:19:43;;;;;;;18.67;16.92;;;;;;;;;;5085368;28;20043;-64
2023/08/19 12:22:09;;;;;;;20.95;18.98;;;;;;;;;;5085143;28;20031;-64
2023/08/19 12:24:34;;;;;;;22.00;19.55;;;;;;;;;;5084201;28;20027;-63
2023/08/19 12:27:00;;;;;;;24.08;21.95;;;;;;;;;;5077624;28;20028;-64
2023/08/19 12:29:25;;;;;;;21.23;19.23;;;;;;;;;;5081533;28;20475;-64
2023/08/19 12:31:50;;;;;;;21.58;19.35;;;;;;;;;;5081365;28;20035;-63
2023/08/19 12:34:16;;;;;;;22.43;20.43;;;;;;;;;;5081144;28;20032;-63
2023/08/19 12:36:41;;;;;;;24.88;22.48;;;;;;;;;;5079952;28;20361;-63
2023/08/19 12:39:06;;;;;;;24.40;22.10;;;;;;;;;;5078398;28;20016;-63
2023/08/19 12:41:32;;;;;;;24.38;22.10;;;;;;;;;;5078245;28;20271;-63
2023/08/19 12:43:57;;;;;;;29.07;26.27;;;;;;;;;;5082659;28;20051;-64
2023/08/19 12:46:22;;;;;;;27.50;25.37;;;;;;;;;;5082153;28;20294;-63
2023/08/19 12:48:48;;;;;;;24.90;22.48;;;;;;;;;;5076444;28;20605;-63
2023/08/19 12:51:13;;;;;;;19.50;17.70;;;;;;;;;;5079199;28;20013;-63
2023/08/19 12:53:38;;;;;;;22.57;20.37;;;;;;;;;;5086106;28;20032;-63
2023/08/19 12:56:04;;;;;;;21.60;19.47;;;;;;;;;;5081198;28;20277;-64
2023/08/19 12:58:29;;;;;;;22.80;20.75;;;;;;;;;;5079294;28;20295;-63
2023/08/19 13:00:54;;;;;;;26.38;24.10;;;;;;;;;;5079250;28;20059;-63
2023/08/19 13:03:20;;;;;;;27.15;24.40;;;;;;;;;;5085177;28;20058;-67
2023/08/19 13:05:46;;;;;;;26.10;23.80;;;;;;;;;;5086217;28;20068;-63
2023/08/19 13:08:11;;;;;;;27.05;24.75;;;;;;;;;;5083912;28;20056;-63
2023/08/19 13:10:36;;;;;;;30.83;28.00;;;;;;;;;;5085432;28;20407;-63
2023/08/19 13:13:02;;;;;;;29.13;26.40;;;;;;;;;;5086440;28;20074;-64
2023/08/19 13:15:27;;;;;;;26.75;24.35;;;;;;;;;;5086129;28;20027;-63
2023/08/19 13:17:52;;;;;;;26.73;24.52;;;;;;;;;;5083307;28;20028;-63
2023/08/19 13:20:20;;;;;;;27.85;25.48;;;;;;;;;;5083497;28;20115;-63
2023/08/19 13:22:47;;;;;;;27.17;24.50;;;;;;;;;;5087374;28;20020;-63
2023/08/19 13:25:12;;;;;;;20.33;18.48;;;;;;;;;;5080067;28;20037;-63
2023/08/19 13:27:37;;;;;;;21.67;14.98;;;;;;;;;;5083024;28;20035;-64
2023/08/19 13:30:03;;;;;;;14.95;13.60;;;;;;;;;;5084570;28;20043;-65
2023/08/19 13:32:29;;;;;;;15.23;13.32;;;;;;;;;;5074545;28;20104;-63
2023/08/19 13:34:54;;;;;;;14.73;13.20;;;;;;;;;;5090887;28;20043;-63
2023/08/19 13:37:19;;;;;;;17.67;15.93;;;;;;;;;;5091850;28;20027;-63
2023/08/19 13:39:45;;;;;;;18.63;16.93;;;;;;;;;;5074281;28;20275;-64
2023/08/19 13:42:10;;;;;;;19.10;17.40;;;;;;;;;;5088265;28;20663;-64
2023/08/19 13:44:35;;;;;;;19.63;17.88;;;;;;;;;;5075011;28;20267;-63
2023/08/19 13:47:01;;;;;;;17.65;15.80;;;;;;;;;;5075661;28;20024;-63
2023/08/19 13:49:26;;;;;;;18.25;16.33;;;;;;;;;;5081300;28;20020;-63
2023/08/19 13:51:52;;;;;;;16.75;15.10;;;;;;;;;;5075359;28;20379;-64
2023/08/19 13:54:18;;;;;;;16.02;14.43;;;;;;;;;;5074523;28;20042;-64
2023/08/19 13:56:43;;;;;;;15.65;14.25;;;;;;;;;;5080090;28;20028;-64
2023/08/19 13:59:09;;;;;;;14.48;12.68;;;;;;;;;;5083358;28;20031;-63
2023/08/19 14:01:34;;;;;;;14.77;12.50;;;;;;;;;;5090934;28;20023;-63
2023/08/19 14:03:59;;;;;;;13.50;12.30;;;;;;;;;;5078389;28;20285;-64
2023/08/19 14:06:24;;;;;;;14.25;12.45;;;;;;;;;;5077334;28;20470;-63
2023/08/19 14:08:50;;;;;;;13.40;12.20;;;;;;;;;;5087054;28;20032;-63
2023/08/19 14:11:15;;;;;;;13.30;11.77;;;;;;;;;;5077271;28;20290;-64
2023/08/19 14:13:41;;;;;;;13.10;11.90;;;;;;;;;;5080743;28;20282;-63
2023/08/19 14:16:06;;;;;;;14.10;12.45;;;;;;;;;;5079073;28;20283;-63
2023/08/19 14:18:32;;;;;;;14.30;12.63;;;;;;;;;;5086536;28;20095;-64